Millnerville, Iowa
Current Conditions -  °F | °C
As of 3:55 AM on Sunday 25 Jan 2015 (Local Time) from KLRJ Reporting Station
Light Rain Light Rain  
Wind Chill: 24°   Ceiling: 800
Heat Index: 34°   Visibility: 3mi
Dew Point: 34°   Wind: 16mph
Humidity: 100%   Direction: 340°NNW
Pressure: 29.75"   Gusts: NA
Location:  42.7082°N, 96.485°W
Report Text: KLRJ 250955Z AUTO 34014KT 3SM -RA BKN008 OVC013 01/01 A2975 RMK AO2 P0001
Loading
Personal Weather Stations






























Interactive Weather Map New forecast layout! Learn more

10-Day Weather Forecast

Advertisements
Track Severe Weather on mobile